PQC weather

Phu Quoc International Airport
Phu Quoc Island, Kien Giang Province, Vietnam

Public forecast

Using degrees Celsius for public forecast. Weather courtesy of forecast.io.

METAR (pilot weather report)

Retrieved 2019/04/21 22:30 UTC (0 seconds ago):

VVPQ 212230Z VRB01KT 9999 FEW017 26/24 Q1006 NOSIG

TAF (pilot weather forecast)

Retrieved 2019/04/21 18:00 UTC (4 hours ago):

TAF VVPQ 211700Z 2118/2218 VRB03KT 9999 SCT017 BECMG 2200/2201 15010KT